sensor_id;sensor_type;location;lat;lon;timestamp;P1;durP1;ratioP1;P2;durP2;ratioP2
69358;SDS011;56520;49.066;8.660;2023-01-19T00:01:18;5.78;;;2.22;;
69358;SDS011;56520;49.066;8.660;2023-01-19T00:03:44;5.28;;;2.17;;
69358;SDS011;56520;49.066;8.660;2023-01-19T00:06:10;7.47;;;3.22;;
69358;SDS011;56520;49.066;8.660;2023-01-19T00:11:04;4.55;;;1.98;;
69358;SDS011;56520;49.066;8.660;2023-01-19T00:13:30;7.13;;;3.17;;
69358;SDS011;56520;49.066;8.660;2023-01-19T00:18:22;4.30;;;1.70;;
69358;SDS011;56520;49.066;8.660;2023-01-19T00:20:47;3.97;;;1.73;;
69358;SDS011;56520;49.066;8.660;2023-01-19T00:23:13;3.20;;;1.40;;
69358;SDS011;56520;49.066;8.660;2023-01-19T00:25:40;4.45;;;1.98;;
69358;SDS011;56520;49.066;8.660;2023-01-19T00:28:11;4.85;;;1.90;;
69358;SDS011;56520;49.066;8.660;2023-01-19T00:30:38;4.80;;;1.67;;
69358;SDS011;56520;49.066;8.660;2023-01-19T00:33:04;5.38;;;2.22;;
69358;SDS011;56520;49.066;8.660;2023-01-19T00:35:30;5.53;;;2.20;;
69358;SDS011;56520;49.066;8.660;2023-01-19T00:37:56;7.45;;;2.33;;
69358;SDS011;56520;49.066;8.660;2023-01-19T00:40:22;6.95;;;2.53;;
69358;SDS011;56520;49.066;8.660;2023-01-19T00:42:47;7.22;;;2.50;;
69358;SDS011;56520;49.066;8.660;2023-01-19T00:45:14;5.95;;;2.78;;
69358;SDS011;56520;49.066;8.660;2023-01-19T00:47:42;5.55;;;2.33;;
69358;SDS011;56520;49.066;8.660;2023-01-19T00:50:08;5.55;;;2.25;;
69358;SDS011;56520;49.066;8.660;2023-01-19T00:52:38;4.15;;;1.77;;
69358;SDS011;56520;49.066;8.660;2023-01-19T00:55:05;4.68;;;1.90;;
69358;SDS011;56520;49.066;8.660;2023-01-19T00:57:32;3.33;;;1.15;;
69358;SDS011;56520;49.066;8.660;2023-01-19T00:59:57;2.92;;;1.45;;
69358;SDS011;56520;49.066;8.660;2023-01-19T01:02:23;5.53;;;1.35;;
69358;SDS011;56520;49.066;8.660;2023-01-19T01:04:48;4.43;;;2.08;;
69358;SDS011;56520;49.066;8.660;2023-01-19T01:07:22;4.45;;;1.77;;
69358;SDS011;56520;49.066;8.660;2023-01-19T01:09:48;5.20;;;1.95;;
69358;SDS011;56520;49.066;8.660;2023-01-19T01:12:13;4.10;;;1.80;;
69358;SDS011;56520;49.066;8.660;2023-01-19T01:14:39;3.03;;;1.58;;
69358;SDS011;56520;49.066;8.660;2023-01-19T01:17:05;4.05;;;2.20;;
69358;SDS011;56520;49.066;8.660;2023-01-19T01:19:35;4.47;;;1.77;;
69358;SDS011;56520;49.066;8.660;2023-01-19T01:24:26;3.85;;;1.42;;
69358;SDS011;56520;49.066;8.660;2023-01-19T01:26:52;4.15;;;1.75;;
69358;SDS011;56520;49.066;8.660;2023-01-19T01:29:17;3.33;;;1.55;;
69358;SDS011;56520;49.066;8.660;2023-01-19T01:31:42;2.28;;;1.10;;
69358;SDS011;56520;49.066;8.660;2023-01-19T01:34:08;3.63;;;1.40;;
69358;SDS011;56520;49.066;8.660;2023-01-19T01:36:33;2.85;;;1.10;;
69358;SDS011;56520;49.066;8.660;2023-01-19T01:41:25;2.25;;;1.13;;
69358;SDS011;56520;49.066;8.660;2023-01-19T01:43:52;9.50;;;1.30;;
69358;SDS011;56520;49.066;8.660;2023-01-19T01:46:22;3.60;;;1.73;;
69358;SDS011;56520;49.066;8.660;2023-01-19T01:49:00;3.10;;;1.55;;
69358;SDS011;56520;49.066;8.660;2023-01-19T01:51:47;3.70;;;1.50;;
69358;SDS011;56520;49.066;8.660;2023-01-19T01:54:18;2.22;;;1.10;;
69358;SDS011;56520;49.066;8.660;2023-01-19T01:56:54;4.38;;;1.45;;
69358;SDS011;56520;49.066;8.660;2023-01-19T01:59:27;3.63;;;1.50;;
69358;SDS011;56520;49.066;8.660;2023-01-19T02:02:06;3.28;;;1.92;;
69358;SDS011;56520;49.066;8.660;2023-01-19T02:05:02;4.32;;;1.77;;
69358;SDS011;56520;49.066;8.660;2023-01-19T02:07:34;3.35;;;1.60;;
69358;SDS011;56520;49.066;8.660;2023-01-19T02:10:19;4.90;;;2.20;;
69358;SDS011;56520;49.066;8.660;2023-01-19T02:13:03;3.38;;;1.67;;
69358;SDS011;56520;49.066;8.660;2023-01-19T02:15:45;4.97;;;2.03;;
69358;SDS011;56520;49.066;8.660;2023-01-19T02:18:12;4.05;;;1.75;;
69358;SDS011;56520;49.066;8.660;2023-01-19T02:20:38;2.22;;;0.82;;
69358;SDS011;56520;49.066;8.660;2023-01-19T02:23:12;4.20;;;1.50;;
69358;SDS011;56520;49.066;8.660;2023-01-19T02:25:42;2.75;;;1.25;;
69358;SDS011;56520;49.066;8.660;2023-01-19T02:28:08;4.28;;;1.65;;
69358;SDS011;56520;49.066;8.660;2023-01-19T02:30:34;3.30;;;1.35;;
69358;SDS011;56520;49.066;8.660;2023-01-19T02:33:02;4.13;;;1.58;;
69358;SDS011;56520;49.066;8.660;2023-01-19T02:35:27;2.45;;;1.40;;
69358;SDS011;56520;49.066;8.660;2023-01-19T02:37:55;2.40;;;1.10;;
69358;SDS011;56520;49.066;8.660;2023-01-19T02:40:22;2.75;;;1.27;;
69358;SDS011;56520;49.066;8.660;2023-01-19T02:42:49;3.45;;;1.48;;
69358;SDS011;56520;49.066;8.660;2023-01-19T02:45:19;12.27;;;1.40;;
69358;SDS011;56520;49.066;8.660;2023-01-19T02:47:47;3.65;;;1.95;;
69358;SDS011;56520;49.066;8.660;2023-01-19T02:50:34;3.70;;;1.45;;
69358;SDS011;56520;49.066;8.660;2023-01-19T02:55:55;1.90;;;1.13;;
69358;SDS011;56520;49.066;8.660;2023-01-19T03:04:56;3.95;;;1.52;;
69358;SDS011;56520;49.066;8.660;2023-01-19T03:07:32;2.75;;;1.13;;
69358;SDS011;56520;49.066;8.660;2023-01-19T03:12:51;3.50;;;0.93;;
69358;SDS011;56520;49.066;8.660;2023-01-19T03:15:28;3.38;;;1.60;;
69358;SDS011;56520;49.066;8.660;2023-01-19T03:17:59;2.47;;;1.08;;
69358;SDS011;56520;49.066;8.660;2023-01-19T03:20:25;1.55;;;0.90;;
69358;SDS011;56520;49.066;8.660;2023-01-19T03:22:56;3.13;;;1.25;;
69358;SDS011;56520;49.066;8.660;2023-01-19T03:25:25;3.35;;;1.17;;
69358;SDS011;56520;49.066;8.660;2023-01-19T03:27:53;2.65;;;1.17;;
69358;SDS011;56520;49.066;8.660;2023-01-19T03:30:23;3.22;;;1.42;;
69358;SDS011;56520;49.066;8.660;2023-01-19T03:33:01;3.78;;;1.30;;
69358;SDS011;56520;49.066;8.660;2023-01-19T03:35:32;5.05;;;1.63;;
69358;SDS011;56520;49.066;8.660;2023-01-19T03:38:02;2.85;;;1.45;;
69358;SDS011;56520;49.066;8.660;2023-01-19T03:40:32;4.60;;;1.25;;
69358;SDS011;56520;49.066;8.660;2023-01-19T03:42:59;3.33;;;1.30;;
69358;SDS011;56520;49.066;8.660;2023-01-19T03:45:26;4.28;;;1.98;;
69358;SDS011;56520;49.066;8.660;2023-01-19T03:47:52;3.08;;;1.30;;
69358;SDS011;56520;49.066;8.660;2023-01-19T03:50:28;1.65;;;0.80;;
69358;SDS011;56520;49.066;8.660;2023-01-19T03:55:29;2.65;;;1.33;;
69358;SDS011;56520;49.066;8.660;2023-01-19T03:57:55;3.65;;;1.75;;
69358;SDS011;56520;49.066;8.660;2023-01-19T04:00:20;3.08;;;1.38;;
69358;SDS011;56520;49.066;8.660;2023-01-19T04:02:46;3.65;;;1.45;;
69358;SDS011;56520;49.066;8.660;2023-01-19T04:05:11;3.47;;;1.55;;
69358;SDS011;56520;49.066;8.660;2023-01-19T04:07:38;3.00;;;1.27;;
69358;SDS011;56520;49.066;8.660;2023-01-19T04:10:03;4.88;;;1.95;;
69358;SDS011;56520;49.066;8.660;2023-01-19T04:12:29;8.15;;;1.75;;
69358;SDS011;56520;49.066;8.660;2023-01-19T04:14:54;2.65;;;1.08;;
69358;SDS011;56520;49.066;8.660;2023-01-19T04:17:20;4.25;;;1.50;;
69358;SDS011;56520;49.066;8.660;2023-01-19T04:19:45;3.35;;;1.40;;
69358;SDS011;56520;49.066;8.660;2023-01-19T04:22:11;3.15;;;1.33;;
69358;SDS011;56520;49.066;8.660;2023-01-19T04:24:36;3.80;;;1.63;;
69358;SDS011;56520;49.066;8.660;2023-01-19T04:27:01;4.97;;;2.15;;
69358;SDS011;56520;49.066;8.660;2023-01-19T04:29:30;3.80;;;1.70;;
69358;SDS011;56520;49.066;8.660;2023-01-19T04:31:55;2.80;;;1.02;;
69358;SDS011;56520;49.066;8.660;2023-01-19T04:34:21;3.25;;;1.52;;
69358;SDS011;56520;49.066;8.660;2023-01-19T04:36:46;9.07;;;2.50;;
69358;SDS011;56520;49.066;8.660;2023-01-19T04:39:14;3.55;;;1.35;;
69358;SDS011;56520;49.066;8.660;2023-01-19T04:41:40;3.92;;;1.38;;
69358;SDS011;56520;49.066;8.660;2023-01-19T04:44:05;4.53;;;1.70;;
69358;SDS011;56520;49.066;8.660;2023-01-19T04:46:31;4.35;;;1.73;;
69358;SDS011;56520;49.066;8.660;2023-01-19T04:48:56;3.65;;;1.58;;
69358;SDS011;56520;49.066;8.660;2023-01-19T04:51:21;3.45;;;1.75;;
69358;SDS011;56520;49.066;8.660;2023-01-19T04:53:47;5.13;;;2.03;;
69358;SDS011;56520;49.066;8.660;2023-01-19T04:56:12;5.10;;;1.65;;
69358;SDS011;56520;49.066;8.660;2023-01-19T04:58:38;6.75;;;2.30;;
69358;SDS011;56520;49.066;8.660;2023-01-19T05:01:07;4.28;;;1.52;;
69358;SDS011;56520;49.066;8.660;2023-01-19T05:03:33;3.22;;;1.50;;
69358;SDS011;56520;49.066;8.660;2023-01-19T05:05:58;2.85;;;1.02;;
69358;SDS011;56520;49.066;8.660;2023-01-19T05:08:24;3.95;;;1.45;;
69358;SDS011;56520;49.066;8.660;2023-01-19T05:10:49;5.97;;;1.88;;
69358;SDS011;56520;49.066;8.660;2023-01-19T05:13:15;10.20;;;4.50;;
69358;SDS011;56520;49.066;8.660;2023-01-19T05:15:40;14.15;;;5.47;;
69358;SDS011;56520;49.066;8.660;2023-01-19T05:18:06;11.20;;;5.03;;
69358;SDS011;56520;49.066;8.660;2023-01-19T05:20:31;10.43;;;5.15;;
69358;SDS011;56520;49.066;8.660;2023-01-19T05:22:56;9.07;;;3.90;;
69358;SDS011;56520;49.066;8.660;2023-01-19T05:25:22;9.82;;;3.90;;
69358;SDS011;56520;49.066;8.660;2023-01-19T05:27:47;7.05;;;3.20;;
69358;SDS011;56520;49.066;8.660;2023-01-19T05:30:13;9.30;;;3.08;;
69358;SDS011;56520;49.066;8.660;2023-01-19T05:35:05;7.63;;;1.98;;
69358;SDS011;56520;49.066;8.660;2023-01-19T05:39:56;3.40;;;1.50;;
69358;SDS011;56520;49.066;8.660;2023-01-19T05:42:22;4.72;;;1.90;;
69358;SDS011;56520;49.066;8.660;2023-01-19T05:44:47;6.55;;;2.35;;
69358;SDS011;56520;49.066;8.660;2023-01-19T05:47:13;3.80;;;1.83;;
69358;SDS011;56520;49.066;8.660;2023-01-19T05:49:38;4.10;;;1.63;;
69358;SDS011;56520;49.066;8.660;2023-01-19T05:52:04;5.75;;;2.10;;
69358;SDS011;56520;49.066;8.660;2023-01-19T05:54:29;5.35;;;1.70;;
69358;SDS011;56520;49.066;8.660;2023-01-19T05:56:55;3.53;;;1.48;;
69358;SDS011;56520;49.066;8.660;2023-01-19T05:59:20;2.80;;;1.20;;
69358;SDS011;56520;49.066;8.660;2023-01-19T06:01:51;3.70;;;1.63;;
69358;SDS011;56520;49.066;8.660;2023-01-19T06:04:17;4.50;;;1.80;;
69358;SDS011;56520;49.066;8.660;2023-01-19T06:06:43;3.35;;;1.40;;
69358;SDS011;56520;49.066;8.660;2023-01-19T06:09:09;3.00;;;1.48;;
69358;SDS011;56520;49.066;8.660;2023-01-19T06:11:34;4.93;;;1.98;;
69358;SDS011;56520;49.066;8.660;2023-01-19T06:14:00;7.03;;;2.38;;
69358;SDS011;56520;49.066;8.660;2023-01-19T06:16:25;3.25;;;1.50;;
69358;SDS011;56520;49.066;8.660;2023-01-19T06:18:51;4.60;;;1.88;;
69358;SDS011;56520;49.066;8.660;2023-01-19T06:23:43;2.78;;;1.77;;
69358;SDS011;56520;49.066;8.660;2023-01-19T06:26:08;4.38;;;1.73;;
69358;SDS011;56520;49.066;8.660;2023-01-19T06:28:34;4.65;;;2.28;;
69358;SDS011;56520;49.066;8.660;2023-01-19T06:31:00;6.95;;;2.70;;
69358;SDS011;56520;49.066;8.660;2023-01-19T06:33:25;6.10;;;2.03;;
69358;SDS011;56520;49.066;8.660;2023-01-19T06:38:17;3.35;;;1.30;;
69358;SDS011;56520;49.066;8.660;2023-01-19T06:40:43;4.57;;;1.80;;
69358;SDS011;56520;49.066;8.660;2023-01-19T06:43:10;5.80;;;2.00;;
69358;SDS011;56520;49.066;8.660;2023-01-19T06:45:35;5.90;;;1.83;;
69358;SDS011;56520;49.066;8.660;2023-01-19T06:48:03;5.63;;;2.10;;
69358;SDS011;56520;49.066;8.660;2023-01-19T06:50:29;11.52;;;2.53;;
69358;SDS011;56520;49.066;8.660;2023-01-19T06:52:54;7.43;;;2.92;;
69358;SDS011;56520;49.066;8.660;2023-01-19T06:55:19;5.85;;;2.50;;
69358;SDS011;56520;49.066;8.660;2023-01-19T06:57:45;4.28;;;1.90;;
69358;SDS011;56520;49.066;8.660;2023-01-19T07:00:11;4.43;;;1.67;;
69358;SDS011;56520;49.066;8.660;2023-01-19T07:02:40;4.38;;;2.00;;
69358;SDS011;56520;49.066;8.660;2023-01-19T07:05:07;4.63;;;1.90;;
69358;SDS011;56520;49.066;8.660;2023-01-19T07:07:33;4.85;;;1.92;;
69358;SDS011;56520;49.066;8.660;2023-01-19T07:09:59;3.30;;;1.58;;
69358;SDS011;56520;49.066;8.660;2023-01-19T07:12:24;5.78;;;2.58;;
69358;SDS011;56520;49.066;8.660;2023-01-19T07:14:50;9.38;;;2.45;;
69358;SDS011;56520;49.066;8.660;2023-01-19T07:17:16;4.10;;;1.70;;
69358;SDS011;56520;49.066;8.660;2023-01-19T07:19:42;6.18;;;2.13;;
69358;SDS011;56520;49.066;8.660;2023-01-19T07:22:07;6.60;;;2.70;;
69358;SDS011;56520;49.066;8.660;2023-01-19T07:24:33;5.72;;;2.17;;
69358;SDS011;56520;49.066;8.660;2023-01-19T07:29:24;4.07;;;1.90;;
69358;SDS011;56520;49.066;8.660;2023-01-19T07:31:50;4.72;;;2.08;;
69358;SDS011;56520;49.066;8.660;2023-01-19T07:34:18;4.82;;;1.95;;
69358;SDS011;56520;49.066;8.660;2023-01-19T07:36:44;4.90;;;2.00;;
69358;SDS011;56520;49.066;8.660;2023-01-19T07:39:09;5.18;;;2.15;;
69358;SDS011;56520;49.066;8.660;2023-01-19T07:41:35;3.58;;;1.83;;
69358;SDS011;56520;49.066;8.660;2023-01-19T07:44:00;3.35;;;1.80;;
69358;SDS011;56520;49.066;8.660;2023-01-19T07:46:26;6.47;;;2.05;;
69358;SDS011;56520;49.066;8.660;2023-01-19T07:48:51;15.20;;;3.03;;
69358;SDS011;56520;49.066;8.660;2023-01-19T07:51:16;4.60;;;2.45;;
69358;SDS011;56520;49.066;8.660;2023-01-19T07:53:43;5.75;;;2.30;;
69358;SDS011;56520;49.066;8.660;2023-01-19T07:56:09;7.70;;;2.17;;
69358;SDS011;56520;49.066;8.660;2023-01-19T07:58:35;6.03;;;1.95;;
69358;SDS011;56520;49.066;8.660;2023-01-19T08:01:04;6.97;;;2.78;;
69358;SDS011;56520;49.066;8.660;2023-01-19T08:03:34;5.32;;;2.22;;
69358;SDS011;56520;49.066;8.660;2023-01-19T08:05:59;6.50;;;2.17;;
69358;SDS011;56520;49.066;8.660;2023-01-19T08:08:27;6.72;;;2.13;;
69358;SDS011;56520;49.066;8.660;2023-01-19T08:10:53;6.72;;;2.38;;
69358;SDS011;56520;49.066;8.660;2023-01-19T08:13:19;5.95;;;2.42;;
69358;SDS011;56520;49.066;8.660;2023-01-19T08:15:47;6.47;;;2.33;;
69358;SDS011;56520;49.066;8.660;2023-01-19T08:18:14;6.45;;;2.38;;
69358;SDS011;56520;49.066;8.660;2023-01-19T08:20:39;6.88;;;3.00;;
69358;SDS011;56520;49.066;8.660;2023-01-19T08:23:05;7.40;;;2.75;;
69358;SDS011;56520;49.066;8.660;2023-01-19T08:25:35;6.78;;;2.00;;
69358;SDS011;56520;49.066;8.660;2023-01-19T08:28:03;6.78;;;3.33;;
69358;SDS011;56520;49.066;8.660;2023-01-19T08:30:30;6.88;;;2.95;;
69358;SDS011;56520;49.066;8.660;2023-01-19T08:32:56;9.25;;;3.60;;
69358;SDS011;56520;49.066;8.660;2023-01-19T08:35:30;14.20;;;3.78;;
69358;SDS011;56520;49.066;8.660;2023-01-19T08:37:57;9.77;;;2.92;;
69358;SDS011;56520;49.066;8.660;2023-01-19T08:40:26;8.88;;;2.65;;
69358;SDS011;56520;49.066;8.660;2023-01-19T08:42:56;9.05;;;3.97;;
69358;SDS011;56520;49.066;8.660;2023-01-19T08:45:24;6.50;;;3.00;;
69358;SDS011;56520;49.066;8.660;2023-01-19T08:47:51;8.63;;;3.88;;
69358;SDS011;56520;49.066;8.660;2023-01-19T08:50:16;6.63;;;2.97;;
69358;SDS011;56520;49.066;8.660;2023-01-19T08:52:41;6.70;;;2.60;;
69358;SDS011;56520;49.066;8.660;2023-01-19T08:55:07;7.32;;;3.30;;
69358;SDS011;56520;49.066;8.660;2023-01-19T08:57:33;5.40;;;2.67;;
69358;SDS011;56520;49.066;8.660;2023-01-19T08:59:58;10.73;;;2.60;;
69358;SDS011;56520;49.066;8.660;2023-01-19T09:02:24;6.63;;;3.30;;
69358;SDS011;56520;49.066;8.660;2023-01-19T09:04:49;6.03;;;2.50;;
69358;SDS011;56520;49.066;8.660;2023-01-19T09:09:42;4.50;;;1.80;;
69358;SDS011;56520;49.066;8.660;2023-01-19T09:12:07;4.43;;;2.08;;
69358;SDS011;56520;49.066;8.660;2023-01-19T09:14:33;7.13;;;2.53;;
69358;SDS011;56520;49.066;8.660;2023-01-19T09:16:58;5.28;;;2.63;;
69358;SDS011;56520;49.066;8.660;2023-01-19T09:19:23;5.63;;;2.20;;
69358;SDS011;56520;49.066;8.660;2023-01-19T09:24:14;4.35;;;2.08;;
69358;SDS011;56520;49.066;8.660;2023-01-19T09:29:05;3.55;;;1.50;;
69358;SDS011;56520;49.066;8.660;2023-01-19T09:31:31;4.47;;;2.05;;
69358;SDS011;56520;49.066;8.660;2023-01-19T09:36:21;3.70;;;1.37;;
69358;SDS011;56520;49.066;8.660;2023-01-19T09:41:18;4.63;;;1.93;;
69358;SDS011;56520;49.066;8.660;2023-01-19T09:43:58;6.55;;;2.00;;
69358;SDS011;56520;49.066;8.660;2023-01-19T09:46:29;4.65;;;1.75;;
69358;SDS011;56520;49.066;8.660;2023-01-19T09:49:01;4.55;;;1.95;;
69358;SDS011;56520;49.066;8.660;2023-01-19T09:51:32;5.28;;;1.60;;
69358;SDS011;56520;49.066;8.660;2023-01-19T09:54:05;10.30;;;2.25;;
69358;SDS011;56520;49.066;8.660;2023-01-19T09:56:45;10.55;;;2.10;;
69358;SDS011;56520;49.066;8.660;2023-01-19T09:59:25;5.05;;;2.17;;
69358;SDS011;56520;49.066;8.660;2023-01-19T10:20:50;12.85;;;2.67;;
69358;SDS011;56520;49.066;8.660;2023-01-19T10:26:09;6.55;;;1.80;;
69358;SDS011;56520;49.066;8.660;2023-01-19T10:28:43;12.95;;;2.42;;
69358;SDS011;56520;49.066;8.660;2023-01-19T10:31:11;4.85;;;1.80;;
69358;SDS011;56520;49.066;8.660;2023-01-19T10:33:37;6.40;;;2.15;;
69358;SDS011;56520;49.066;8.660;2023-01-19T10:38:29;4.50;;;1.77;;
69358;SDS011;56520;49.066;8.660;2023-01-19T10:40:59;4.82;;;1.77;;
69358;SDS011;56520;49.066;8.660;2023-01-19T10:45:58;4.78;;;1.85;;
69358;SDS011;56520;49.066;8.660;2023-01-19T10:48:40;4.03;;;1.73;;
69358;SDS011;56520;49.066;8.660;2023-01-19T10:51:06;6.05;;;2.28;;
69358;SDS011;56520;49.066;8.660;2023-01-19T10:53:33;6.97;;;2.10;;
69358;SDS011;56520;49.066;8.660;2023-01-19T10:56:15;8.20;;;2.33;;
69358;SDS011;56520;49.066;8.660;2023-01-19T10:58:45;5.47;;;2.20;;
69358;SDS011;56520;49.066;8.660;2023-01-19T11:01:12;4.30;;;1.55;;
69358;SDS011;56520;49.066;8.660;2023-01-19T11:03:37;5.53;;;2.25;;
69358;SDS011;56520;49.066;8.660;2023-01-19T11:08:37;5.03;;;1.95;;
69358;SDS011;56520;49.066;8.660;2023-01-19T11:11:03;4.63;;;1.70;;
69358;SDS011;56520;49.066;8.660;2023-01-19T11:13:32;4.65;;;1.85;;
69358;SDS011;56520;49.066;8.660;2023-01-19T11:16:03;6.05;;;2.55;;
69358;SDS011;56520;49.066;8.660;2023-01-19T11:18:31;6.05;;;1.95;;
69358;SDS011;56520;49.066;8.660;2023-01-19T11:21:00;4.18;;;1.50;;
69358;SDS011;56520;49.066;8.660;2023-01-19T11:23:28;5.82;;;2.22;;
69358;SDS011;56520;49.066;8.660;2023-01-19T11:26:00;4.80;;;1.98;;
69358;SDS011;56520;49.066;8.660;2023-01-19T11:31:02;4.68;;;2.05;;
69358;SDS011;56520;49.066;8.660;2023-01-19T11:36:18;4.35;;;1.63;;
69358;SDS011;56520;49.066;8.660;2023-01-19T11:38:46;6.18;;;2.33;;
69358;SDS011;56520;49.066;8.660;2023-01-19T11:41:15;3.85;;;1.63;;
69358;SDS011;56520;49.066;8.660;2023-01-19T11:43:45;6.28;;;2.40;;
69358;SDS011;56520;49.066;8.660;2023-01-19T11:46:14;6.03;;;2.28;;
69358;SDS011;56520;49.066;8.660;2023-01-19T11:49:01;6.05;;;2.33;;
69358;SDS011;56520;49.066;8.660;2023-01-19T11:51:38;5.05;;;2.15;;
69358;SDS011;56520;49.066;8.660;2023-01-19T11:54:20;8.45;;;2.53;;
69358;SDS011;56520;49.066;8.660;2023-01-19T11:59:18;3.50;;;1.63;;
69358;SDS011;56520;49.066;8.660;2023-01-19T12:01:49;5.93;;;2.38;;
69358;SDS011;56520;49.066;8.660;2023-01-19T12:04:23;6.57;;;2.80;;
69358;SDS011;56520;49.066;8.660;2023-01-19T12:06:54;6.35;;;1.92;;
69358;SDS011;56520;49.066;8.660;2023-01-19T12:09:24;8.77;;;2.63;;
69358;SDS011;56520;49.066;8.660;2023-01-19T12:12:31;6.75;;;2.67;;
69358;SDS011;56520;49.066;8.660;2023-01-19T12:17:51;5.60;;;2.13;;
69358;SDS011;56520;49.066;8.660;2023-01-19T12:28:11;4.97;;;1.98;;
69358;SDS011;56520;49.066;8.660;2023-01-19T12:30:38;7.10;;;2.13;;
69358;SDS011;56520;49.066;8.660;2023-01-19T12:33:20;3.95;;;1.83;;
69358;SDS011;56520;49.066;8.660;2023-01-19T12:38:52;6.13;;;2.20;;
69358;SDS011;56520;49.066;8.660;2023-01-19T12:54:34;4.50;;;1.92;;
69358;SDS011;56520;49.066;8.660;2023-01-19T12:59:27;5.75;;;2.10;;
69358;SDS011;56520;49.066;8.660;2023-01-19T13:04:42;5.97;;;1.70;;
69358;SDS011;56520;49.066;8.660;2023-01-19T13:13:19;4.85;;;1.95;;
69358;SDS011;56520;49.066;8.660;2023-01-19T13:15:46;6.07;;;2.15;;
69358;SDS011;56520;49.066;8.660;2023-01-19T13:23:27;4.03;;;1.95;;
69358;SDS011;56520;49.066;8.660;2023-01-19T13:26:20;7.47;;;2.33;;
69358;SDS011;56520;49.066;8.660;2023-01-19T13:28:49;5.47;;;2.20;;
69358;SDS011;56520;49.066;8.660;2023-01-19T13:31:17;6.25;;;2.50;;
69358;SDS011;56520;49.066;8.660;2023-01-19T13:33:45;4.35;;;1.92;;
69358;SDS011;56520;49.066;8.660;2023-01-19T13:36:15;4.70;;;1.92;;
69358;SDS011;56520;49.066;8.660;2023-01-19T13:38:44;9.00;;;3.13;;
69358;SDS011;56520;49.066;8.660;2023-01-19T13:41:14;6.70;;;2.38;;
69358;SDS011;56520;49.066;8.660;2023-01-19T13:43:43;5.05;;;2.25;;
69358;SDS011;56520;49.066;8.660;2023-01-19T13:48:37;7.47;;;2.65;;
69358;SDS011;56520;49.066;8.660;2023-01-19T13:53:30;4.38;;;1.83;;
69358;SDS011;56520;49.066;8.660;2023-01-19T13:58:32;4.35;;;1.90;;
69358;SDS011;56520;49.066;8.660;2023-01-19T14:03:23;4.57;;;1.83;;
69358;SDS011;56520;49.066;8.660;2023-01-19T14:08:18;5.10;;;1.77;;
69358;SDS011;56520;49.066;8.660;2023-01-19T14:15:47;5.45;;;1.63;;
69358;SDS011;56520;49.066;8.660;2023-01-19T14:26:04;5.72;;;1.95;;
69358;SDS011;56520;49.066;8.660;2023-01-19T14:28:34;6.80;;;2.40;;
69358;SDS011;56520;49.066;8.660;2023-01-19T14:31:36;6.85;;;2.30;;
69358;SDS011;56520;49.066;8.660;2023-01-19T14:33:57;5.28;;;2.00;;
69358;SDS011;56520;49.066;8.660;2023-01-19T14:41:26;5.00;;;2.20;;
69358;SDS011;56520;49.066;8.660;2023-01-19T14:43:52;7.88;;;2.33;;
69358;SDS011;56520;49.066;8.660;2023-01-19T14:46:20;4.82;;;1.98;;
69358;SDS011;56520;49.066;8.660;2023-01-19T14:48:47;5.65;;;2.00;;
69358;SDS011;56520;49.066;8.660;2023-01-19T14:51:15;5.50;;;1.95;;
69358;SDS011;56520;49.066;8.660;2023-01-19T14:53:46;5.95;;;2.10;;
69358;SDS011;56520;49.066;8.660;2023-01-19T14:59:09;5.00;;;1.92;;
69358;SDS011;56520;49.066;8.660;2023-01-19T15:04:00;5.68;;;1.58;;
69358;SDS011;56520;49.066;8.660;2023-01-19T15:08:51;5.55;;;1.90;;
69358;SDS011;56520;49.066;8.660;2023-01-19T15:13:48;6.00;;;2.03;;
69358;SDS011;56520;49.066;8.660;2023-01-19T15:16:14;6.10;;;2.13;;
69358;SDS011;56520;49.066;8.660;2023-01-19T15:21:07;4.95;;;1.45;;
69358;SDS011;56520;49.066;8.660;2023-01-19T15:23:37;5.65;;;1.92;;
69358;SDS011;56520;49.066;8.660;2023-01-19T15:28:29;4.25;;;1.83;;
69358;SDS011;56520;49.066;8.660;2023-01-19T15:30:55;6.57;;;2.03;;
69358;SDS011;56520;49.066;8.660;2023-01-19T15:33:22;5.25;;;1.90;;
69358;SDS011;56520;49.066;8.660;2023-01-19T15:35:50;6.57;;;2.10;;
69358;SDS011;56520;49.066;8.660;2023-01-19T15:40:42;4.90;;;1.92;;
69358;SDS011;56520;49.066;8.660;2023-01-19T15:45:34;4.72;;;1.98;;
69358;SDS011;56520;49.066;8.660;2023-01-19T15:48:01;4.50;;;2.20;;
69358;SDS011;56520;49.066;8.660;2023-01-19T15:50:31;5.07;;;2.00;;
69358;SDS011;56520;49.066;8.660;2023-01-19T15:52:57;4.63;;;1.90;;
69358;SDS011;56520;49.066;8.660;2023-01-19T15:55:23;6.70;;;1.95;;
69358;SDS011;56520;49.066;8.660;2023-01-19T15:57:49;6.78;;;2.15;;
69358;SDS011;56520;49.066;8.660;2023-01-19T16:00:14;4.95;;;1.83;;
69358;SDS011;56520;49.066;8.660;2023-01-19T16:02:40;5.30;;;1.98;;
69358;SDS011;56520;49.066;8.660;2023-01-19T16:07:32;4.78;;;2.00;;
69358;SDS011;56520;49.066;8.660;2023-01-19T16:09:58;5.18;;;2.10;;
69358;SDS011;56520;49.066;8.660;2023-01-19T16:12:24;5.32;;;1.98;;
69358;SDS011;56520;49.066;8.660;2023-01-19T16:14:50;6.28;;;2.50;;
69358;SDS011;56520;49.066;8.660;2023-01-19T16:17:15;5.72;;;2.35;;
69358;SDS011;56520;49.066;8.660;2023-01-19T16:19:40;5.95;;;2.28;;
69358;SDS011;56520;49.066;8.660;2023-01-19T16:24:32;4.55;;;2.10;;
69358;SDS011;56520;49.066;8.660;2023-01-19T16:27:12;5.00;;;2.40;;
69358;SDS011;56520;49.066;8.660;2023-01-19T16:29:38;5.45;;;1.70;;
69358;SDS011;56520;49.066;8.660;2023-01-19T16:34:29;5.93;;;1.95;;
69358;SDS011;56520;49.066;8.660;2023-01-19T16:36:55;6.13;;;2.38;;
69358;SDS011;56520;49.066;8.660;2023-01-19T16:41:45;4.32;;;2.15;;
69358;SDS011;56520;49.066;8.660;2023-01-19T16:44:11;6.45;;;1.90;;
69358;SDS011;56520;49.066;8.660;2023-01-19T16:46:39;7.40;;;2.85;;
69358;SDS011;56520;49.066;8.660;2023-01-19T16:49:09;5.35;;;2.53;;
69358;SDS011;56520;49.066;8.660;2023-01-19T16:51:36;7.60;;;2.80;;
69358;SDS011;56520;49.066;8.660;2023-01-19T16:54:02;6.30;;;2.45;;
69358;SDS011;56520;49.066;8.660;2023-01-19T16:58:53;6.00;;;2.28;;
69358;SDS011;56520;49.066;8.660;2023-01-19T17:01:19;6.03;;;2.20;;
69358;SDS011;56520;49.066;8.660;2023-01-19T17:03:45;10.73;;;3.08;;
69358;SDS011;56520;49.066;8.660;2023-01-19T17:06:12;6.07;;;3.00;;
69358;SDS011;56520;49.066;8.660;2023-01-19T17:08:39;7.47;;;3.40;;
69358;SDS011;56520;49.066;8.660;2023-01-19T17:11:12;7.22;;;2.03;;
69358;SDS011;56520;49.066;8.660;2023-01-19T17:13:44;7.05;;;2.47;;
69358;SDS011;56520;49.066;8.660;2023-01-19T17:16:20;4.97;;;1.80;;
69358;SDS011;56520;49.066;8.660;2023-01-19T17:18:47;6.57;;;2.88;;
69358;SDS011;56520;49.066;8.660;2023-01-19T17:21:12;10.55;;;2.28;;
69358;SDS011;56520;49.066;8.660;2023-01-19T17:23:42;6.15;;;2.67;;
69358;SDS011;56520;49.066;8.660;2023-01-19T17:26:08;5.53;;;2.17;;
69358;SDS011;56520;49.066;8.660;2023-01-19T17:28:34;6.15;;;2.10;;
69358;SDS011;56520;49.066;8.660;2023-01-19T17:31:06;5.10;;;2.13;;
69358;SDS011;56520;49.066;8.660;2023-01-19T17:33:36;4.15;;;1.60;;
69358;SDS011;56520;49.066;8.660;2023-01-19T17:36:06;5.85;;;2.00;;
69358;SDS011;56520;49.066;8.660;2023-01-19T17:38:33;4.63;;;1.73;;
69358;SDS011;56520;49.066;8.660;2023-01-19T17:40:59;6.22;;;1.60;;
69358;SDS011;56520;49.066;8.660;2023-01-19T17:43:24;5.35;;;2.05;;
69358;SDS011;56520;49.066;8.660;2023-01-19T17:48:15;4.07;;;1.70;;
69358;SDS011;56520;49.066;8.660;2023-01-19T17:50:41;5.20;;;2.05;;
69358;SDS011;56520;49.066;8.660;2023-01-19T17:55:33;3.97;;;1.70;;
69358;SDS011;56520;49.066;8.660;2023-01-19T17:57:59;3.53;;;1.40;;
69358;SDS011;56520;49.066;8.660;2023-01-19T18:00:24;3.17;;;1.25;;
69358;SDS011;56520;49.066;8.660;2023-01-19T18:02:50;9.18;;;2.78;;
69358;SDS011;56520;49.066;8.660;2023-01-19T18:05:16;6.65;;;2.42;;
69358;SDS011;56520;49.066;8.660;2023-01-19T18:07:42;7.03;;;2.85;;
69358;SDS011;56520;49.066;8.660;2023-01-19T18:12:33;5.45;;;2.95;;